Accueil
METAR-TAF:

METAR-TAF

Aéroports :

Gloucester, Angleterre

Aéroport du Gloucestershire

latitude: 51-54N, longitude: 002-10W, altitude: 29 m

Observation

Le bulletin a été fait il y a 9 heures et 26 minutes, à 18:20 UTC
Vent 8 kt de sud-ouest
Température 14°C
Humidité 72%
Pression 1010 hPa
Visibilité 10 km ou plus
Quelques nuages à une hauteur de 3500 ft

METAR: EGBJ 221820Z 22008KT 9999 FEW035 14/09 Q1010

Heure: 04:46 (03:46 UTC)

Prévision

Le bulletin a été fait il y a 13 heures et 40 minutes, à 14:06 UTC
Prévision valable du 22 à 15 UTC au 22 à 19 UTC
Vent 12 kt de sud-ouest
Visibilité 10 km ou plus
Quelques nuages à une hauteur de 4500 ft

TAF: EGBJ 221406Z 2215/2219 23012KT 9999 FEW045

Observations et prévisions météorologiques de plus de 4000 aéroports (messages METAR et TAF).

Les stations disponibles sont représentées par des disques jaunes et rouges sur la carte.

Passer la souris dessus pour voir le nom de la station.

Cliquer dessus pour voir les observations et prévisions météorologiques.

Pour changer de carte: cliquez sur les boutons verts avec une croix noire pour zoomer, sur le bouton vert avec un tiret pour effectuer un zoom arrière, ou sur les flèches vertes pour les cartes adjacentes.


METAR-TAF: